Time;durP1;ratioP1;P1;durP2;ratioP2;P2;SDS_P1;SDS_P2;PMS_P1;PMS_P2;Temp;Humidity;BMP_temperature;BMP_pressure;BME280_temperature;BME280_humidity;BME280_pressure;Samples;Min_cycle;Max_cycle;Signal;HPM_P1;HPM_P2
2021/01/10 00:00:01;;;;;;;14.57;11.33;;;0.50;99.90;;;;;;5016097;28;20409;-61
2021/01/10 00:02:27;;;;;;;12.80;10.87;;;0.50;99.90;;;;;;5016268;28;20427;-61
2021/01/10 00:04:53;;;;;;;15.30;11.60;;;0.50;99.90;;;;;;5016262;28;20392;-60
2021/01/10 00:07:23;;;;;;;15.33;11.53;;;0.50;99.90;;;;;;5017311;28;20453;-58
2021/01/10 00:09:49;;;;;;;13.87;10.27;;;0.60;99.90;;;;;;5016723;28;20423;-59
2021/01/10 00:12:22;;;;;;;12.93;10.30;;;0.70;99.90;;;;;;5016459;28;20444;-58
2021/01/10 00:14:48;;;;;;;14.20;11.60;;;0.80;99.90;;;;;;5017275;28;20532;-58
2021/01/10 00:17:13;;;;;;;14.80;10.87;;;0.90;99.90;;;;;;5017681;28;20405;-59
2021/01/10 00:19:42;;;;;;;13.20;10.90;;;0.90;99.90;;;;;;5015869;28;20190;-61
2021/01/10 00:22:12;;;;;;;14.00;11.13;;;1.00;99.90;;;;;;5016285;28;20169;-61
2021/01/10 00:24:38;;;;;;;11.03;9.40;;;0.90;99.90;;;;;;5015874;28;20413;-58
2021/01/10 00:27:11;;;;;;;14.60;11.40;;;0.90;99.90;;;;;;5015757;28;20474;-60
2021/01/10 00:29:37;;;;;;;13.83;10.73;;;0.90;99.90;;;;;;5015594;28;20478;-62
2021/01/10 00:32:04;;;;;;;13.43;10.57;;;0.70;99.90;;;;;;5015090;28;20533;-61
2021/01/10 00:34:30;;;;;;;14.27;11.37;;;0.70;99.90;;;;;;5014902;28;20408;-61
2021/01/10 00:36:55;;;;;;;15.03;11.90;;;0.60;99.90;;;;;;5015436;28;20407;-61
2021/01/10 00:39:21;;;;;;;16.23;12.43;;;0.50;99.90;;;;;;5015273;28;20192;-60
2021/01/10 00:41:46;;;;;;;18.30;12.50;;;0.40;99.90;;;;;;5015236;28;20352;-60
2021/01/10 00:44:12;;;;;;;13.37;11.90;;;0.40;99.90;;;;;;5014666;28;20189;-61
2021/01/10 00:46:38;;;;;;;14.27;11.00;;;0.40;99.90;;;;;;5014672;28;20181;-61
2021/01/10 00:49:03;;;;;;;16.23;11.60;;;0.40;99.90;;;;;;5015028;28;20190;-59
2021/01/10 00:51:29;;;;;;;17.00;13.27;;;0.50;99.90;;;;;;5015050;28;20196;-61
2021/01/10 00:53:55;;;;;;;17.90;13.57;;;0.50;99.90;;;;;;5014929;28;20622;-61
2021/01/10 00:56:20;;;;;;;15.33;11.73;;;0.50;99.90;;;;;;5015139;28;20223;-61
2021/01/10 00:58:46;;;;;;;21.50;14.83;;;0.70;99.90;;;;;;5014974;28;20192;-61
2021/01/10 01:01:11;;;;;;;21.13;15.67;;;0.70;99.90;;;;;;5014528;28;20240;-60
2021/01/10 01:03:37;;;;;;;22.57;16.10;;;0.80;99.90;;;;;;5013952;28;20885;-61
2021/01/10 01:06:04;;;;;;;18.90;15.47;;;0.60;99.90;;;;;;5014766;28;20169;-61
2021/01/10 01:08:29;;;;;;;25.50;18.00;;;0.60;99.90;;;;;;5014659;28;20186;-61
2021/01/10 01:10:55;;;;;;;23.30;18.20;;;0.60;99.90;;;;;;5014531;28;20844;-60
2021/01/10 01:13:21;;;;;;;23.53;18.10;;;0.60;99.90;;;;;;5015195;28;20213;-61
2021/01/10 01:15:52;;;;;;;26.27;19.30;;;0.80;99.90;;;;;;5015379;28;20174;-60
2021/01/10 01:18:18;;;;;;;27.63;19.33;;;0.90;99.90;;;;;;5014760;28;20185;-61
2021/01/10 01:20:44;;;;;;;21.30;16.43;;;1.10;99.90;;;;;;5013198;28;20488;-61
2021/01/10 01:23:10;;;;;;;26.20;19.23;;;1.10;99.90;;;;;;5014514;28;20167;-59
2021/01/10 01:25:36;;;;;;;24.87;17.60;;;1.20;99.90;;;;;;5013849;28;20403;-61
2021/01/10 01:28:02;;;;;;;26.37;19.30;;;1.30;99.90;;;;;;4994303;28;20672;-60
2021/01/10 01:30:28;;;;;;;23.50;18.87;;;1.20;99.90;;;;;;4994789;28;20422;-61
2021/01/10 01:32:54;;;;;;;22.87;18.47;;;1.20;99.90;;;;;;4977662;28;20437;-60
2021/01/10 01:35:19;;;;;;;25.77;19.77;;;1.30;99.90;;;;;;5004593;28;20659;-61
2021/01/10 01:37:45;;;;;;;24.97;18.47;;;1.30;99.90;;;;;;5014189;28;20297;-61
2021/01/10 01:40:11;;;;;;;23.43;18.70;;;1.30;99.90;;;;;;5014272;28;21001;-61
2021/01/10 01:42:37;;;;;;;23.80;18.93;;;1.30;99.90;;;;;;5014215;28;20221;-60
2021/01/10 01:45:06;;;;;;;21.13;18.10;;;1.50;99.90;;;;;;5012902;28;20421;-61
2021/01/10 01:47:32;;;;;;;22.87;18.97;;;1.40;99.90;;;;;;4996522;28;20261;-60
2021/01/10 01:49:58;;;;;;;21.47;17.03;;;1.40;99.90;;;;;;5013235;28;20456;-60
2021/01/10 01:52:24;;;;;;;26.87;19.47;;;1.40;99.90;;;;;;5016132;28;20520;-61
2021/01/10 01:54:50;;;;;;;25.77;18.40;;;1.40;99.90;;;;;;5031114;28;20254;-60
2021/01/10 01:57:16;;;;;;;25.50;19.20;;;1.40;99.90;;;;;;5032897;28;20408;-62
2021/01/10 01:59:42;;;;;;;24.57;18.97;;;1.40;99.90;;;;;;5014523;28;20447;-60
2021/01/10 02:02:08;;;;;;;25.37;19.10;;;1.40;99.90;;;;;;5014202;28;20173;-61
2021/01/10 02:04:47;;;;;;;19.00;15.70;;;1.30;99.90;;;;;;5014144;28;20173;-60
2021/01/10 02:07:28;;;;;;;21.77;17.00;;;1.20;99.90;;;;;;5013968;28;20427;-61
2021/01/10 02:09:57;;;;;;;22.23;16.70;;;1.10;99.90;;;;;;5014215;28;20416;-60
2021/01/10 02:12:26;;;;;;;22.67;17.43;;;1.00;99.90;;;;;;5014494;28;20818;-60
2021/01/10 02:14:58;;;;;;;20.37;17.47;;;1.00;99.90;;;;;;5014346;28;20417;-60
2021/01/10 02:17:26;;;;;;;19.00;15.40;;;0.90;99.90;;;;;;5014013;28;20380;-60
2021/01/10 02:19:56;;;;;;;20.17;15.57;;;0.90;99.90;;;;;;5013758;28;20425;-60
2021/01/10 02:22:26;;;;;;;19.43;14.70;;;0.80;99.90;;;;;;5012626;28;20434;-60
2021/01/10 02:24:52;;;;;;;16.77;13.97;;;0.80;99.90;;;;;;5013493;28;20792;-61
2021/01/10 02:27:19;;;;;;;18.50;14.57;;;0.80;99.90;;;;;;5013431;28;20958;-61
2021/01/10 02:29:45;;;;;;;20.17;16.53;;;0.90;99.90;;;;;;5013460;28;20418;-60
2021/01/10 02:32:11;;;;;;;18.67;14.67;;;0.90;99.90;;;;;;5013276;28;20447;-61
2021/01/10 02:34:38;;;;;;;19.13;14.90;;;0.90;99.90;;;;;;5012577;28;20426;-60
2021/01/10 02:37:36;;;;;;;17.83;14.67;;;0.80;99.90;;;;;;5013583;28;20408;-60
2021/01/10 02:40:11;;;;;;;16.60;13.50;;;0.80;99.90;;;;;;4982899;28;20430;-60
2021/01/10 02:42:37;;;;;;;15.80;13.20;;;0.60;99.90;;;;;;5013688;28;20408;-59
2021/01/10 02:45:12;;;;;;;15.40;13.70;;;0.50;99.90;;;;;;5012048;28;20543;-60
2021/01/10 02:47:38;;;;;;;20.67;14.57;;;0.50;99.90;;;;;;5013399;28;20168;-60
2021/01/10 02:50:05;;;;;;;18.20;12.60;;;0.40;99.90;;;;;;5013109;28;20424;-60
2021/01/10 02:52:31;;;;;;;15.53;12.23;;;0.30;99.90;;;;;;5012481;28;20455;-60
2021/01/10 02:54:58;;;;;;;15.70;12.53;;;0.20;99.90;;;;;;5013235;28;21020;-60
2021/01/10 02:57:29;;;;;;;17.40;12.67;;;0.20;99.90;;;;;;5015530;28;20492;-61
2021/01/10 02:59:57;;;;;;;17.13;13.87;;;0.30;99.90;;;;;;5017142;28;20454;-60
2021/01/10 03:02:22;;;;;;;17.50;11.57;;;0.20;99.90;;;;;;5017460;28;20418;-60
2021/01/10 03:04:49;;;;;;;16.67;12.43;;;0.20;99.90;;;;;;5017155;28;20412;-61
2021/01/10 03:07:15;;;;;;;16.60;13.07;;;0.20;99.90;;;;;;5017042;28;20170;-61
2021/01/10 03:09:41;;;;;;;15.77;11.53;;;0.20;99.90;;;;;;5017488;28;20463;-60
2021/01/10 03:12:30;;;;;;;15.83;11.70;;;0.10;99.90;;;;;;5017198;28;21007;-61
2021/01/10 03:14:58;;;;;;;18.23;12.47;;;0.10;99.90;;;;;;5016894;28;20152;-60
2021/01/10 03:17:37;;;;;;;18.23;13.40;;;0.00;99.90;;;;;;5015857;28;20506;-60
2021/01/10 03:20:08;;;;;;;15.50;11.53;;;0.00;99.90;;;;;;5017768;28;20453;-60
2021/01/10 03:22:33;;;;;;;15.53;12.00;;;-0.10;99.90;;;;;;5016748;28;20505;-59
2021/01/10 03:25:00;;;;;;;14.83;11.33;;;-0.20;99.90;;;;;;5016773;28;20439;-58
2021/01/10 03:27:26;;;;;;;18.13;14.30;;;-0.20;99.90;;;;;;5016475;28;20170;-60
2021/01/10 03:29:51;;;;;;;15.17;10.93;;;-0.20;99.90;;;;;;5016925;28;20477;-58
2021/01/10 03:32:17;;;;;;;14.70;11.80;;;-0.30;99.90;;;;;;5017815;28;20458;-58
2021/01/10 03:34:43;;;;;;;15.73;11.90;;;-0.20;99.90;;;;;;5017770;28;20230;-60
2021/01/10 03:37:09;;;;;;;13.93;12.10;;;-0.30;99.90;;;;;;5017392;28;20168;-57
2021/01/10 03:39:35;;;;;;;16.20;10.90;;;-0.30;99.90;;;;;;5018948;28;20430;-57
2021/01/10 03:42:01;;;;;;;13.80;11.40;;;-0.40;99.90;;;;;;5017964;28;20403;-60
2021/01/10 03:44:27;;;;;;;15.60;11.57;;;-0.40;99.90;;;;;;5016842;28;20177;-60
2021/01/10 03:46:53;;;;;;;16.00;12.00;;;-0.50;99.90;;;;;;5016558;28;20417;-62
2021/01/10 03:49:19;;;;;;;20.00;13.77;;;-0.40;99.90;;;;;;5016533;28;20465;-60
2021/01/10 03:51:45;;;;;;;16.13;11.07;;;-0.40;99.90;;;;;;5016640;28;20455;-60
2021/01/10 03:54:10;;;;;;;15.77;12.63;;;-0.40;99.90;;;;;;5016704;28;20407;-60
2021/01/10 03:56:36;;;;;;;16.10;11.43;;;-0.40;99.90;;;;;;5016894;28;20160;-61
2021/01/10 03:59:02;;;;;;;15.13;11.70;;;-0.30;99.90;;;;;;5015569;28;20227;-60
2021/01/10 04:01:27;;;;;;;16.23;12.60;;;-0.30;99.90;;;;;;5017299;28;20246;-59
2021/01/10 04:03:53;;;;;;;15.07;11.90;;;-0.30;99.90;;;;;;5020813;28;20239;-60
2021/01/10 04:06:19;;;;;;;15.97;12.83;;;-0.20;99.90;;;;;;5016596;28;20530;-61
2021/01/10 04:08:46;;;;;;;15.00;11.70;;;-0.10;99.90;;;;;;5015300;28;20235;-61
2021/01/10 04:11:13;;;;;;;13.20;11.53;;;-0.10;99.90;;;;;;5014611;28;20456;-61
2021/01/10 04:13:38;;;;;;;14.80;12.00;;;0.00;99.90;;;;;;5016145;28;20445;-61
2021/01/10 04:16:04;;;;;;;12.83;10.20;;;0.00;99.90;;;;;;5016194;28;20919;-61
2021/01/10 04:18:30;;;;;;;14.97;12.17;;;0.00;99.90;;;;;;5015008;28;20408;-61
2021/01/10 04:20:56;;;;;;;16.10;12.00;;;0.00;99.90;;;;;;5015885;28;20426;-61
2021/01/10 04:23:21;;;;;;;15.47;12.47;;;0.10;99.90;;;;;;5015471;28;20169;-61
2021/01/10 04:25:49;;;;;;;15.90;12.43;;;0.10;99.90;;;;;;5015922;28;20655;-61
2021/01/10 04:28:14;;;;;;;16.03;13.30;;;0.20;99.90;;;;;;5015503;28;20169;-61
2021/01/10 04:30:40;;;;;;;16.00;12.50;;;0.20;99.90;;;;;;5015364;28;20936;-60
2021/01/10 04:33:05;;;;;;;14.13;11.60;;;0.20;99.90;;;;;;5015967;28;20247;-59
2021/01/10 04:35:31;;;;;;;16.13;11.87;;;0.30;99.90;;;;;;5016074;28;20160;-59
2021/01/10 04:37:57;;;;;;;15.97;12.27;;;0.50;99.90;;;;;;5015319;28;20165;-61
2021/01/10 04:40:22;;;;;;;13.40;10.50;;;0.50;99.90;;;;;;5014308;28;20621;-59
2021/01/10 04:42:49;;;;;;;14.10;11.53;;;0.60;99.90;;;;;;5015536;28;20299;-59
2021/01/10 04:45:14;;;;;;;13.27;10.90;;;0.60;99.90;;;;;;5016872;28;20230;-58
2021/01/10 04:47:42;;;;;;;16.83;12.90;;;0.80;99.90;;;;;;5028629;28;21137;-60
2021/01/10 04:50:09;;;;;;;19.43;14.50;;;0.90;99.90;;;;;;5015321;28;20205;-60
2021/01/10 04:52:37;;;;;;;19.50;15.30;;;0.90;99.90;;;;;;5015293;28;20452;-61
2021/01/10 04:55:04;;;;;;;17.27;13.07;;;0.70;99.90;;;;;;5015004;28;20398;-61
2021/01/10 04:57:33;;;;;;;16.57;13.80;;;0.70;99.90;;;;;;5014713;28;20401;-59
2021/01/10 04:59:58;;;;;;;21.27;15.23;;;0.70;99.90;;;;;;5014822;28;20454;-61
2021/01/10 05:02:27;;;;;;;17.30;14.60;;;0.70;99.90;;;;;;5014162;28;20493;-61
2021/01/10 05:04:54;;;;;;;16.50;13.43;;;0.80;99.90;;;;;;5014581;28;20180;-60
2021/01/10 05:07:19;;;;;;;17.47;13.87;;;0.90;99.90;;;;;;5014185;28;20413;-62
2021/01/10 05:09:46;;;;;;;15.53;13.70;;;1.00;99.90;;;;;;4995037;28;20454;-60
2021/01/10 05:12:12;;;;;;;20.23;14.70;;;1.10;99.90;;;;;;4995240;28;20766;-61
2021/01/10 05:14:37;;;;;;;19.33;14.67;;;1.00;99.90;;;;;;4995232;28;20507;-60
2021/01/10 05:17:03;;;;;;;15.80;13.30;;;1.10;99.90;;;;;;5012637;28;20582;-61
2021/01/10 05:19:30;;;;;;;20.70;15.03;;;1.10;99.90;;;;;;5014674;28;20570;-60
2021/01/10 05:21:56;;;;;;;18.27;13.90;;;1.10;99.90;;;;;;5014750;28;20178;-61
2021/01/10 05:24:21;;;;;;;16.80;14.50;;;1.10;99.90;;;;;;5013628;28;20922;-61
2021/01/10 05:26:48;;;;;;;18.90;14.93;;;1.10;99.90;;;;;;5014442;28;20471;-60
2021/01/10 05:29:14;;;;;;;20.90;15.77;;;1.20;99.90;;;;;;5014653;28;20272;-61
2021/01/10 05:31:45;;;;;;;14.90;11.97;;;1.20;99.90;;;;;;5014226;28;20978;-61
2021/01/10 05:34:16;;;;;;;18.67;14.13;;;1.20;99.90;;;;;;5013599;28;20417;-61
2021/01/10 05:36:42;;;;;;;18.27;14.50;;;1.20;99.90;;;;;;5014213;28;20408;-60
2021/01/10 05:39:17;;;;;;;19.50;14.67;;;1.10;99.90;;;;;;5014214;28;20397;-61
2021/01/10 05:41:49;;;;;;;18.47;16.47;;;1.10;99.90;;;;;;4994938;28;20925;-61
2021/01/10 05:44:14;;;;;;;20.00;15.50;;;1.10;99.90;;;;;;4994958;28;20837;-61
2021/01/10 05:46:40;;;;;;;17.43;14.40;;;1.20;99.90;;;;;;5008577;28;20459;-61
2021/01/10 05:49:19;;;;;;;22.50;16.07;;;1.40;99.90;;;;;;5014052;28;20559;-60
2021/01/10 05:51:45;;;;;;;20.80;14.90;;;1.40;99.90;;;;;;5012904;28;20473;-60
2021/01/10 05:54:36;;;;;;;17.37;15.07;;;1.50;99.90;;;;;;5014208;28;20943;-61
2021/01/10 05:57:06;;;;;;;16.33;14.23;;;1.50;99.90;;;;;;4996489;28;20405;-60
2021/01/10 05:59:34;;;;;;;18.50;13.93;;;1.50;99.90;;;;;;5012804;28;20441;-59
2021/01/10 06:02:05;;;;;;;17.60;14.17;;;1.40;99.90;;;;;;5013990;28;20926;-60
2021/01/10 06:04:32;;;;;;;16.40;13.83;;;1.30;99.90;;;;;;5014306;28;20442;-59
2021/01/10 06:06:58;;;;;;;20.67;16.27;;;1.30;99.90;;;;;;5013804;28;20501;-60
2021/01/10 06:09:25;;;;;;;18.80;14.87;;;1.30;99.90;;;;;;4995210;28;20454;-60
2021/01/10 06:11:51;;;;;;;18.33;15.77;;;1.30;99.90;;;;;;5016302;28;20456;-61
2021/01/10 06:14:24;;;;;;;18.17;14.57;;;1.30;99.90;;;;;;4996271;28;20438;-60
2021/01/10 06:16:57;;;;;;;17.27;13.13;;;1.30;99.90;;;;;;5013868;28;20435;-60
2021/01/10 06:19:28;;;;;;;18.63;13.63;;;1.30;99.90;;;;;;5013399;28;20539;-60
2021/01/10 06:21:56;;;;;;;18.93;14.43;;;1.40;99.90;;;;;;5013316;28;20398;-56
2021/01/10 06:24:24;;;;;;;17.83;15.20;;;1.40;99.90;;;;;;5013850;28;20464;-58
2021/01/10 06:27:00;;;;;;;17.93;13.90;;;1.40;99.90;;;;;;5013766;28;20406;-60
2021/01/10 06:29:29;;;;;;;19.57;14.43;;;1.30;99.90;;;;;;5013229;28;20455;-60
2021/01/10 06:31:57;;;;;;;17.17;13.87;;;1.10;99.90;;;;;;5013511;28;20962;-61
2021/01/10 06:34:26;;;;;;;17.87;14.87;;;1.20;99.90;;;;;;5012844;28;20913;-59
2021/01/10 06:36:53;;;;;;;17.13;14.33;;;1.20;99.90;;;;;;5013602;28;20402;-61
2021/01/10 06:39:28;;;;;;;18.67;13.20;;;1.30;99.90;;;;;;5014022;28;21009;-60
2021/01/10 06:41:56;;;;;;;17.70;13.60;;;1.30;99.90;;;;;;5013923;28;20392;-60
2021/01/10 06:44:23;;;;;;;17.30;14.50;;;1.30;99.90;;;;;;5014096;28;20766;-61
2021/01/10 06:46:53;;;;;;;18.03;14.57;;;1.30;99.90;;;;;;5012714;28;20480;-60
2021/01/10 06:49:20;;;;;;;20.07;15.03;;;1.30;99.90;;;;;;5013257;28;20822;-60
2021/01/10 06:51:47;;;;;;;17.73;13.87;;;1.20;99.90;;;;;;5013403;28;20893;-60
2021/01/10 06:54:14;;;;;;;20.30;14.50;;;1.00;99.90;;;;;;5012612;28;20968;-60
2021/01/10 06:56:50;;;;;;;19.00;15.73;;;1.00;99.90;;;;;;5014000;28;20459;-60
2021/01/10 06:59:23;;;;;;;16.90;13.30;;;0.90;99.90;;;;;;5014130;28;20409;-59
2021/01/10 07:01:49;;;;;;;20.20;15.23;;;0.90;99.90;;;;;;5013572;28;20388;-57
2021/01/10 07:04:21;;;;;;;19.43;15.60;;;0.80;99.90;;;;;;5012631;28;20947;-59
2021/01/10 07:06:52;;;;;;;20.63;14.77;;;0.80;99.90;;;;;;5013783;28;20260;-61
2021/01/10 07:09:19;;;;;;;19.10;14.10;;;0.60;99.90;;;;;;5013119;28;20419;-59
2021/01/10 07:11:46;;;;;;;19.13;13.97;;;0.50;99.90;;;;;;5012257;28;20460;-60
2021/01/10 07:14:11;;;;;;;18.50;14.33;;;0.60;99.90;;;;;;5013106;28;20404;-59
2021/01/10 07:16:37;;;;;;;18.80;15.10;;;0.70;99.90;;;;;;5013331;28;20401;-60
2021/01/10 07:19:06;;;;;;;17.30;14.07;;;0.90;99.90;;;;;;5012836;28;20261;-61
2021/01/10 07:21:41;;;;;;;17.60;13.33;;;1.00;99.90;;;;;;5013148;28;20410;-57
2021/01/10 07:24:26;;;;;;;15.50;13.53;;;0.90;99.90;;;;;;5012126;28;20420;-60
2021/01/10 07:26:56;;;;;;;17.57;14.07;;;0.90;99.90;;;;;;5012456;28;20388;-60
2021/01/10 07:29:32;;;;;;;16.30;14.03;;;1.00;99.90;;;;;;5012465;28;20425;-61
2021/01/10 07:32:02;;;;;;;18.30;14.20;;;1.10;99.90;;;;;;5012922;28;20451;-61
2021/01/10 07:34:29;;;;;;;16.07;13.00;;;1.20;99.90;;;;;;5012863;28;20447;-60
2021/01/10 07:36:57;;;;;;;18.03;13.30;;;1.30;99.90;;;;;;5013024;28;20473;-61
2021/01/10 07:39:29;;;;;;;19.53;14.63;;;1.20;99.90;;;;;;5026326;28;20441;-59
2021/01/10 07:42:28;;;;;;;17.60;13.83;;;1.20;99.90;;;;;;5012953;28;20444;-60
2021/01/10 07:44:55;;;;;;;16.27;13.77;;;1.00;99.90;;;;;;5000951;28;20446;-61
2021/01/10 07:47:33;;;;;;;18.70;15.10;;;0.90;99.90;;;;;;5016291;28;20408;-59
2021/01/10 07:50:14;;;;;;;17.93;14.43;;;0.90;99.90;;;;;;5016112;28;20444;-60
2021/01/10 07:52:44;;;;;;;17.27;14.07;;;0.90;99.90;;;;;;5016163;28;20478;-59
2021/01/10 07:55:18;;;;;;;18.90;15.40;;;1.00;99.90;;;;;;5016449;28;20400;-61
2021/01/10 07:57:52;;;;;;;20.93;15.70;;;0.90;99.90;;;;;;5016334;28;20402;-61
2021/01/10 08:00:23;;;;;;;19.10;15.20;;;0.80;99.90;;;;;;5014793;28;20435;-59
2021/01/10 08:02:56;;;;;;;18.00;15.43;;;0.80;99.90;;;;;;5016133;28;20405;-58
2021/01/10 08:05:29;;;;;;;17.97;14.10;;;0.80;99.90;;;;;;5016119;28;20462;-60
2021/01/10 08:08:00;;;;;;;19.63;15.30;;;1.00;99.90;;;;;;5016156;28;20494;-61
2021/01/10 08:10:42;;;;;;;21.10;16.57;;;0.90;99.90;;;;;;5016093;28;20424;-60
2021/01/10 08:13:26;;;;;;;18.77;14.63;;;0.90;99.90;;;;;;5015925;28;20440;-61
2021/01/10 08:15:52;;;;;;;20.70;14.93;;;1.20;99.90;;;;;;5015323;28;20404;-61
2021/01/10 08:18:22;;;;;;;18.60;15.70;;;1.40;99.90;;;;;;5017211;28;20401;-61
2021/01/10 08:20:52;;;;;;;16.87;14.53;;;1.40;99.90;;;;;;5016191;28;20482;-60
2021/01/10 08:23:18;;;;;;;21.70;15.67;;;1.30;99.90;;;;;;5016017;28;20434;-59
2021/01/10 08:25:44;;;;;;;17.90;13.40;;;1.40;99.90;;;;;;5015748;28;20398;-61
2021/01/10 08:28:11;;;;;;;19.37;14.93;;;1.40;99.90;;;;;;4997048;28;20397;-60
2021/01/10 08:30:37;;;;;;;18.13;14.70;;;1.50;99.90;;;;;;5013968;28;20801;-59
2021/01/10 08:33:03;;;;;;;18.20;14.20;;;1.30;99.90;;;;;;5015609;28;20910;-60
2021/01/10 08:35:29;;;;;;;20.97;16.17;;;1.40;99.90;;;;;;5016477;28;20400;-61
2021/01/10 08:37:54;;;;;;;16.10;13.60;;;1.60;99.90;;;;;;5015459;28;20770;-61
2021/01/10 08:40:20;;;;;;;18.90;15.00;;;1.70;99.90;;;;;;5015641;28;20265;-61
2021/01/10 08:42:45;;;;;;;16.60;14.43;;;1.80;99.90;;;;;;5015536;28;20179;-61
2021/01/10 08:45:21;;;;;;;19.50;16.20;;;1.80;99.90;;;;;;5014313;28;20241;-60
2021/01/10 08:47:48;;;;;;;19.17;14.83;;;1.80;99.90;;;;;;5017574;28;20540;-60
2021/01/10 08:50:15;;;;;;;18.50;15.50;;;1.80;99.90;;;;;;5019101;28;20418;-59
2021/01/10 08:52:58;;;;;;;17.17;13.77;;;1.80;99.90;;;;;;5017756;28;20450;-60
2021/01/10 08:55:39;;;;;;;18.10;15.57;;;1.80;99.90;;;;;;5018890;28;20775;-61
2021/01/10 08:58:07;;;;;;;17.40;14.73;;;2.10;99.90;;;;;;5018546;28;20399;-61
2021/01/10 09:00:41;;;;;;;20.23;15.20;;;2.20;99.90;;;;;;5017434;28;20516;-60
2021/01/10 09:03:19;;;;;;;14.67;13.00;;;2.20;99.90;;;;;;5015173;28;20426;-60
2021/01/10 09:05:50;;;;;;;21.20;16.90;;;2.30;99.90;;;;;;5015758;28;20717;-60
2021/01/10 09:08:43;;;;;;;20.10;15.50;;;2.00;99.90;;;;;;5015884;28;20857;-60
2021/01/10 09:11:21;;;;;;;17.67;14.67;;;1.80;99.90;;;;;;5014351;28;20810;-59
2021/01/10 09:13:49;;;;;;;17.07;14.43;;;1.80;99.90;;;;;;5014085;28;20457;-61
2021/01/10 09:16:17;;;;;;;18.07;14.27;;;1.90;99.90;;;;;;5014624;28;20494;-61
2021/01/10 09:18:47;;;;;;;16.07;13.80;;;2.20;99.90;;;;;;5014663;28;20442;-60
2021/01/10 09:21:15;;;;;;;17.00;14.33;;;1.80;99.90;;;;;;5014582;28;20557;-60
2021/01/10 09:23:58;;;;;;;16.70;13.43;;;1.80;99.90;;;;;;5014878;28;20786;-61
2021/01/10 09:26:25;;;;;;;18.13;13.77;;;1.90;99.90;;;;;;5015657;28;20383;-59
2021/01/10 09:28:51;;;;;;;15.87;13.13;;;1.90;99.90;;;;;;5013369;28;20433;-60
2021/01/10 09:31:17;;;;;;;16.30;12.60;;;1.90;99.90;;;;;;5014728;28;20992;-61
2021/01/10 09:33:43;;;;;;;17.10;13.73;;;2.00;99.90;;;;;;5014665;28;20166;-61
2021/01/10 09:36:16;;;;;;;18.37;14.33;;;2.20;99.90;;;;;;5014112;28;20407;-60
2021/01/10 09:38:56;;;;;;;14.70;13.20;;;2.30;99.90;;;;;;5014716;28;20431;-60
2021/01/10 09:41:22;;;;;;;18.90;15.37;;;2.20;99.90;;;;;;5014334;28;20428;-60
2021/01/10 09:43:52;;;;;;;16.90;14.37;;;1.90;99.90;;;;;;5014309;28;20927;-60
2021/01/10 09:46:28;;;;;;;17.30;13.93;;;1.80;99.90;;;;;;5014486;28;20192;-61
2021/01/10 09:49:16;;;;;;;19.00;15.53;;;2.00;99.90;;;;;;5014199;28;20496;-61
2021/01/10 09:51:43;;;;;;;16.20;14.40;;;2.00;99.90;;;;;;5013829;28;20985;-62
2021/01/10 09:54:14;;;;;;;19.10;16.67;;;2.10;99.90;;;;;;5013232;28;20480;-62
2021/01/10 09:56:40;;;;;;;16.60;14.37;;;2.30;99.90;;;;;;5014132;28;20399;-59
2021/01/10 09:59:35;;;;;;;18.43;14.30;;;2.10;99.90;;;;;;5014103;28;20753;-60
2021/01/10 10:02:26;;;;;;;15.20;13.50;;;2.00;99.90;;;;;;5013542;28;20176;-60
2021/01/10 10:05:10;;;;;;;16.37;14.37;;;1.90;99.90;;;;;;5003301;28;20431;-59
2021/01/10 10:07:46;;;;;;;19.17;15.63;;;1.90;99.90;;;;;;5013537;28;20392;-59
2021/01/10 10:10:25;;;;;;;18.37;14.30;;;2.00;99.90;;;;;;5014164;28;20503;-58
2021/01/10 10:12:55;;;;;;;17.00;14.30;;;2.10;99.90;;;;;;5016435;28;20524;-59
2021/01/10 10:15:22;;;;;;;15.50;13.53;;;2.00;99.90;;;;;;5013706;28;20399;-60
2021/01/10 10:17:47;;;;;;;19.37;14.60;;;2.00;99.90;;;;;;5017542;28;20412;-60
2021/01/10 10:20:13;;;;;;;18.20;13.93;;;2.10;99.90;;;;;;5015459;28;20513;-60
2021/01/10 10:22:40;;;;;;;15.33;12.57;;;1.90;99.90;;;;;;5016946;28;20179;-61
2021/01/10 10:25:09;;;;;;;14.47;12.23;;;1.90;99.90;;;;;;5014451;28;20407;-61
2021/01/10 10:27:52;;;;;;;16.53;14.00;;;1.80;99.90;;;;;;5014420;28;20412;-60
2021/01/10 10:30:18;;;;;;;15.50;12.60;;;1.80;99.90;;;;;;5013255;28;20422;-60
2021/01/10 10:32:43;;;;;;;14.50;12.47;;;1.80;99.90;;;;;;4993604;28;20450;-60
2021/01/10 10:35:09;;;;;;;18.67;13.03;;;1.80;99.90;;;;;;5012135;28;20419;-58
2021/01/10 10:37:35;;;;;;;15.50;12.40;;;2.00;99.90;;;;;;5013564;28;20559;-61
2021/01/10 10:40:02;;;;;;;15.77;11.93;;;2.10;99.90;;;;;;5013612;28;20508;-59
2021/01/10 10:42:27;;;;;;;15.97;12.30;;;2.10;99.90;;;;;;5013515;28;20190;-61
2021/01/10 10:44:53;;;;;;;13.70;11.80;;;2.10;99.90;;;;;;5012301;28;20767;-60
2021/01/10 10:47:18;;;;;;;17.23;12.70;;;2.10;99.90;;;;;;5013358;28;20171;-61
2021/01/10 10:49:44;;;;;;;14.60;11.33;;;2.30;99.90;;;;;;5012878;28;20755;-61
2021/01/10 10:52:11;;;;;;;14.70;11.73;;;2.30;99.90;;;;;;5013541;28;20198;-60
2021/01/10 10:54:37;;;;;;;20.23;13.27;;;2.20;99.90;;;;;;5013753;28;20469;-61
2021/01/10 10:57:03;;;;;;;13.87;10.70;;;2.20;99.90;;;;;;5013931;28;20442;-62
2021/01/10 10:59:28;;;;;;;14.70;12.17;;;2.10;99.90;;;;;;5014239;28;20742;-60
2021/01/10 11:01:54;;;;;;;11.47;10.10;;;2.20;99.90;;;;;;5014364;28;20508;-59
2021/01/10 11:04:20;;;;;;;14.03;10.70;;;2.20;99.90;;;;;;5014534;28;20660;-59
2021/01/10 11:06:45;;;;;;;13.20;11.03;;;2.40;99.90;;;;;;5014376;28;20271;-60
2021/01/10 11:09:11;;;;;;;13.70;10.97;;;3.00;99.90;;;;;;5014472;28;20176;-60
2021/01/10 11:11:39;;;;;;;11.50;10.03;;;4.20;99.90;;;;;;5014022;28;20192;-60
2021/01/10 11:14:05;;;;;;;13.73;9.83;;;5.90;99.90;;;;;;5012686;28;20160;-61
2021/01/10 11:16:35;;;;;;;13.23;10.83;;;6.00;99.90;;;;;;5012258;28;20418;-60
2021/01/10 11:19:02;;;;;;;14.53;10.17;;;6.30;99.90;;;;;;5016956;28;20771;-61
2021/01/10 11:21:33;;;;;;;11.80;9.93;;;6.60;99.90;;;;;;5016831;28;20411;-60
2021/01/10 11:23:58;;;;;;;12.60;10.97;;;6.40;99.90;;;;;;5015927;28;20434;-61
2021/01/10 11:26:24;;;;;;;14.33;11.40;;;6.00;99.90;;;;;;5016807;28;20411;-61
2021/01/10 11:28:50;;;;;;;11.80;10.60;;;5.60;99.90;;;;;;5017056;28;20175;-61
2021/01/10 11:31:17;;;;;;;12.37;10.43;;;5.60;99.90;;;;;;5017350;28;20959;-61
2021/01/10 11:33:43;;;;;;;16.10;11.50;;;6.10;99.90;;;;;;5015548;28;20168;-61
2021/01/10 11:36:09;;;;;;;12.03;10.73;;;6.90;99.90;;;;;;5016510;28;20403;-61
2021/01/10 11:38:35;;;;;;;12.70;11.03;;;7.30;99.40;;;;;;5016508;28;20174;-61
2021/01/10 11:41:11;;;;;;;13.50;11.30;;;6.60;99.50;;;;;;5016582;28;20518;-61
2021/01/10 11:43:38;;;;;;;11.90;10.20;;;7.00;99.80;;;;;;5016536;28;20916;-60
2021/01/10 11:46:07;;;;;;;11.20;10.00;;;7.60;99.50;;;;;;5015434;28;20414;-59
2021/01/10 11:48:34;;;;;;;11.17;9.70;;;8.80;97.70;;;;;;5016103;28;20431;-60
2021/01/10 11:51:02;;;;;;;10.27;9.27;;;9.20;96.40;;;;;;5016418;28;20423;-60
2021/01/10 11:53:28;;;;;;;12.00;10.20;;;9.80;94.90;;;;;;5016620;28;20400;-61
2021/01/10 11:55:53;;;;;;;16.13;11.60;;;8.50;95.40;;;;;;5015574;28;20424;-61
2021/01/10 11:58:19;;;;;;;15.50;12.27;;;8.60;95.90;;;;;;5016581;28;20410;-61
2021/01/10 12:00:45;;;;;;;10.80;9.70;;;8.30;96.10;;;;;;5016128;28;20312;-60
2021/01/10 12:03:10;;;;;;;11.60;10.40;;;8.00;97.00;;;;;;5016200;28;20584;-61
2021/01/10 12:05:39;;;;;;;14.33;10.40;;;9.10;95.60;;;;;;5016382;28;20182;-59
2021/01/10 12:08:05;;;;;;;10.50;9.50;;;9.50;96.10;;;;;;5016045;28;20199;-61
2021/01/10 12:10:35;;;;;;;11.10;10.00;;;10.10;92.80;;;;;;5014844;28;20888;-61
2021/01/10 12:13:04;;;;;;;11.80;10.60;;;9.20;94.30;;;;;;5015863;28;20203;-61
2021/01/10 12:15:34;;;;;;;10.07;9.10;;;7.90;95.40;;;;;;5016298;28;20403;-61
2021/01/10 12:18:01;;;;;;;10.17;9.17;;;7.60;95.60;;;;;;5014980;28;20787;-62
2021/01/10 12:20:27;;;;;;;12.10;9.00;;;8.20;96.30;;;;;;5017891;28;21014;-61
2021/01/10 12:22:52;;;;;;;10.77;8.40;;;8.40;95.00;;;;;;5016021;28;20440;-61
2021/01/10 12:25:18;;;;;;;11.80;8.83;;;8.20;95.50;;;;;;5015269;28;20175;-62
2021/01/10 12:27:44;;;;;;;8.77;7.73;;;7.50;96.00;;;;;;5015570;28;20199;-61
2021/01/10 12:30:10;;;;;;;10.37;8.60;;;6.50;96.90;;;;;;5014651;28;20665;-61
2021/01/10 12:32:38;;;;;;;9.90;8.17;;;5.60;98.80;;;;;;5014929;28;20565;-62
2021/01/10 12:35:09;;;;;;;10.23;8.50;;;5.30;99.30;;;;;;5014439;28;20510;-61
2021/01/10 12:37:35;;;;;;;9.57;8.57;;;4.70;99.90;;;;;;5015968;28;20755;-60
2021/01/10 12:40:01;;;;;;;11.10;8.80;;;4.70;99.90;;;;;;5014941;28;20458;-61
2021/01/10 12:42:27;;;;;;;8.23;7.43;;;4.60;99.90;;;;;;5014716;28;20776;-60
2021/01/10 12:44:53;;;;;;;8.50;7.50;;;4.20;99.90;;;;;;5014390;28;20403;-60